createdAt,value
2023-04-13T00:02:06.289Z,100.00
2023-04-13T00:04:33.995Z,100.00
2023-04-13T00:07:03.443Z,100.00
2023-04-13T00:09:33.144Z,100.00
2023-04-13T00:11:59.795Z,100.00
2023-04-13T00:14:35.322Z,100.00
2023-04-13T00:17:03.260Z,100.00
2023-04-13T00:19:30.055Z,100.00
2023-04-13T00:21:56.938Z,100.00
2023-04-13T00:24:23.489Z,100.00
2023-04-13T00:26:49.996Z,100.00
2023-04-13T00:29:16.498Z,100.00
2023-04-13T00:31:42.943Z,100.00
2023-04-13T00:34:09.372Z,100.00
2023-04-13T00:36:36.097Z,100.00
2023-04-13T00:39:02.508Z,100.00
2023-04-13T00:41:29.186Z,100.00
2023-04-13T00:43:55.663Z,100.00
2023-04-13T00:46:24.728Z,100.00
2023-04-13T00:48:51.264Z,100.00
2023-04-13T00:51:18.243Z,100.00
2023-04-13T00:53:44.767Z,100.00
2023-04-13T00:56:12.095Z,100.00
2023-04-13T00:58:38.606Z,100.00
2023-04-13T01:01:05.248Z,100.00
2023-04-13T01:03:31.847Z,100.00
2023-04-13T01:06:17.863Z,100.00
2023-04-13T01:08:58.079Z,100.00
2023-04-13T01:11:48.419Z,100.00
2023-04-13T01:14:23.316Z,100.00
2023-04-13T01:16:59.146Z,100.00
2023-04-13T01:19:53.829Z,100.00
2023-04-13T01:22:22.482Z,100.00
2023-04-13T01:25:07.576Z,100.00
2023-04-13T01:27:42.296Z,100.00
2023-04-13T01:30:11.037Z,100.00
2023-04-13T01:32:38.916Z,100.00
2023-04-13T01:35:06.857Z,100.00
2023-04-13T01:37:33.828Z,100.00
2023-04-13T01:40:00.263Z,100.00
2023-04-13T01:42:26.710Z,100.00
2023-04-13T01:44:53.185Z,100.00
2023-04-13T01:47:23.364Z,100.00
2023-04-13T01:50:00.528Z,100.00
2023-04-13T01:52:27.981Z,100.00
2023-04-13T01:54:56.346Z,100.00
2023-04-13T01:57:23.341Z,100.00
2023-04-13T01:59:49.820Z,100.00
2023-04-13T02:02:17.557Z,100.00
2023-04-13T02:04:44.152Z,100.00
2023-04-13T02:07:12.357Z,100.00
2023-04-13T02:09:38.887Z,100.00
2023-04-13T02:12:05.738Z,100.00
2023-04-13T02:14:32.281Z,100.00
2023-04-13T02:16:58.998Z,100.00
2023-04-13T02:19:25.680Z,100.00
2023-04-13T02:21:53.244Z,100.00
2023-04-13T02:24:19.687Z,100.00
2023-04-13T02:26:46.376Z,100.00
2023-04-13T02:29:12.794Z,100.00
2023-04-13T02:31:44.169Z,100.00
2023-04-13T02:34:11.417Z,100.00
2023-04-13T02:36:39.236Z,100.00
2023-04-13T02:39:05.800Z,100.00
2023-04-13T02:41:32.368Z,100.00
2023-04-13T02:43:59.848Z,100.00
2023-04-13T02:46:26.443Z,100.00
2023-04-13T02:48:52.958Z,100.00
2023-04-13T02:51:20.542Z,100.00
2023-04-13T02:53:47.101Z,100.00
2023-04-13T02:56:14.282Z,100.00
2023-04-13T02:58:41.856Z,100.00
2023-04-13T03:01:08.396Z,100.00
2023-04-13T03:03:34.946Z,100.00
2023-04-13T03:06:01.677Z,100.00
2023-04-13T03:08:28.428Z,100.00
2023-04-13T03:10:55.062Z,100.00
2023-04-13T03:13:21.534Z,100.00
2023-04-13T03:15:48.225Z,100.00
2023-04-13T03:18:16.141Z,100.00
2023-04-13T03:20:43.708Z,100.00
2023-04-13T03:23:10.728Z,100.00
2023-04-13T03:25:37.390Z,100.00
2023-04-13T03:28:03.949Z,100.00
2023-04-13T03:30:30.487Z,100.00
2023-04-13T03:32:57.025Z,100.00
2023-04-13T03:35:23.560Z,100.00
2023-04-13T03:37:50.454Z,100.00
2023-04-13T03:40:17.056Z,100.00
2023-04-13T03:42:43.466Z,100.00
2023-04-13T03:45:10.648Z,100.00
2023-04-13T03:47:38.829Z,100.00
2023-04-13T03:50:06.097Z,100.00
2023-04-13T03:52:32.628Z,100.00
2023-04-13T03:54:59.104Z,100.00
2023-04-13T03:57:26.697Z,100.00
2023-04-13T03:59:53.186Z,100.00
2023-04-13T04:02:20.165Z,100.00
2023-04-13T04:04:46.795Z,100.00
2023-04-13T04:07:13.344Z,100.00
2023-04-13T04:09:39.805Z,100.00
2023-04-13T04:12:06.584Z,100.00
2023-04-13T04:14:34.260Z,100.00
2023-04-13T04:17:01.264Z,100.00
2023-04-13T04:19:27.985Z,100.00
2023-04-13T04:21:57.659Z,100.00
2023-04-13T04:24:24.213Z,100.00
2023-04-13T04:26:50.822Z,100.00
2023-04-13T04:29:17.830Z,100.00
2023-04-13T04:31:44.474Z,100.00
2023-04-13T04:34:11.532Z,100.00
2023-04-13T04:36:41.477Z,100.00
2023-04-13T04:39:09.965Z,100.00
2023-04-13T04:41:37.512Z,100.00
2023-04-13T04:44:08.211Z,100.00
2023-04-13T04:46:38.582Z,100.00
2023-04-13T04:49:05.190Z,100.00
2023-04-13T04:51:32.152Z,100.00
2023-04-13T04:54:01.509Z,100.00
2023-04-13T04:56:28.877Z,100.00
2023-04-13T04:58:55.387Z,100.00
2023-04-13T05:01:26.206Z,100.00
2023-04-13T05:03:53.608Z,100.00
2023-04-13T05:06:20.134Z,100.00
2023-04-13T05:08:46.869Z,100.00
2023-04-13T05:11:13.432Z,100.00
2023-04-13T05:13:39.944Z,100.00
2023-04-13T05:16:06.963Z,100.00
2023-04-13T05:18:43.733Z,100.00
2023-04-13T05:21:10.291Z,100.00
2023-04-13T05:23:36.817Z,100.00
2023-04-13T05:26:03.401Z,100.00
2023-04-13T05:28:29.912Z,100.00
2023-04-13T05:31:11.127Z,100.00
2023-04-13T05:33:37.931Z,100.00
2023-04-13T05:36:05.015Z,100.00
2023-04-13T05:38:31.857Z,100.00
2023-04-13T05:40:58.678Z,100.00
2023-04-13T05:43:25.232Z,100.00
2023-04-13T05:45:52.035Z,100.00
2023-04-13T05:48:19.287Z,100.00
2023-04-13T05:50:45.804Z,100.00
2023-04-13T05:53:12.654Z,100.00
2023-04-13T05:55:40.597Z,100.00
2023-04-13T05:58:08.688Z,100.00
2023-04-13T06:00:35.245Z,100.00
2023-04-13T06:03:02.371Z,100.00
2023-04-13T06:05:30.261Z,100.00
2023-04-13T06:07:56.854Z,100.00
2023-04-13T06:10:23.432Z,100.00
2023-04-13T06:12:51.131Z,100.00
2023-04-13T06:15:18.439Z,100.00
2023-04-13T06:17:45.121Z,100.00
2023-04-13T06:20:12.033Z,100.00
2023-04-13T06:22:38.677Z,100.00
2023-04-13T06:25:05.708Z,100.00
2023-04-13T06:27:33.752Z,100.00
2023-04-13T06:30:01.140Z,100.00
2023-04-13T06:32:27.712Z,100.00
2023-04-13T06:34:54.265Z,100.00
2023-04-13T06:37:20.917Z,100.00
2023-04-13T06:39:47.477Z,100.00
2023-04-13T06:42:15.293Z,100.00
2023-04-13T06:44:42.788Z,100.00
2023-04-13T06:47:09.361Z,100.00
2023-04-13T06:49:36.598Z,100.00
2023-04-13T06:52:03.219Z,100.00
2023-04-13T06:54:29.728Z,100.00
2023-04-13T06:56:57.146Z,100.00
2023-04-13T06:59:23.716Z,100.00
2023-04-13T07:01:50.714Z,100.00
2023-04-13T07:04:17.472Z,100.00
2023-04-13T07:06:44.120Z,100.00
2023-04-13T07:09:10.669Z,100.00
2023-04-13T07:11:37.153Z,100.00
2023-04-13T07:14:03.948Z,100.00
2023-04-13T07:16:30.589Z,100.00
2023-04-13T07:18:57.229Z,100.00
2023-04-13T07:21:23.896Z,100.00
2023-04-13T07:23:50.619Z,100.00
2023-04-13T07:26:18.243Z,100.00
2023-04-13T07:28:44.798Z,100.00
2023-04-13T07:31:11.773Z,100.00
2023-04-13T07:33:38.354Z,100.00
2023-04-13T07:36:05.350Z,100.00
2023-04-13T07:38:31.859Z,100.00
2023-04-13T07:40:58.339Z,100.00
2023-04-13T07:43:26.361Z,100.00
2023-04-13T07:45:52.830Z,100.00
2023-04-13T07:48:19.346Z,100.00
2023-04-13T07:50:46.779Z,100.00
2023-04-13T07:53:13.407Z,100.00
2023-04-13T07:55:39.840Z,100.00
2023-04-13T07:58:06.290Z,100.00
2023-04-13T08:00:32.721Z,100.00
2023-04-13T08:02:59.251Z,100.00
2023-04-13T08:05:26.032Z,100.00
2023-04-13T08:07:52.969Z,100.00
2023-04-13T08:10:19.659Z,96.59
2023-04-13T08:12:46.607Z,98.54
2023-04-13T08:15:13.294Z,96.47
2023-04-13T08:17:39.820Z,99.14
2023-04-13T08:20:08.148Z,100.00
2023-04-13T08:22:34.940Z,100.00
2023-04-13T08:25:01.629Z,100.00
2023-04-13T08:27:28.280Z,100.00
2023-04-13T08:29:56.327Z,100.00
2023-04-13T08:32:22.915Z,100.00
2023-04-13T08:34:49.495Z,100.00
2023-04-13T08:37:16.274Z,100.00
2023-04-13T08:39:43.061Z,100.00
2023-04-13T08:42:09.857Z,100.00
2023-04-13T08:44:40.197Z,99.52
2023-04-13T08:47:06.875Z,98.25
2023-04-13T08:49:34.362Z,99.03
2023-04-13T08:52:04.804Z,97.07
2023-04-13T08:54:31.639Z,97.41
2023-04-13T08:56:58.197Z,93.62
2023-04-13T08:59:27.241Z,90.54
2023-04-13T09:01:55.191Z,96.60
2023-04-13T09:04:24.010Z,95.07
2023-04-13T09:06:51.710Z,95.55
2023-04-13T09:09:18.955Z,96.51
2023-04-13T09:11:46.181Z,91.08
2023-04-13T09:14:13.989Z,94.62
2023-04-13T09:16:42.196Z,93.93
2023-04-13T09:19:09.510Z,88.79
2023-04-13T09:21:41.360Z,89.83
2023-04-13T09:24:08.409Z,88.65
2023-04-13T09:26:43.119Z,87.13
2023-04-13T09:29:21.847Z,92.36
2023-04-13T09:31:48.401Z,91.84
2023-04-13T09:34:26.801Z,92.82
2023-04-13T09:36:55.816Z,96.03
2023-04-13T09:39:26.133Z,100.00
2023-04-13T09:41:53.510Z,89.64
2023-04-13T09:44:22.437Z,85.43
2023-04-13T09:46:59.705Z,85.65
2023-04-13T09:49:27.066Z,91.01
2023-04-13T09:51:54.628Z,87.85
2023-04-13T09:54:24.113Z,88.04
2023-04-13T09:56:52.869Z,92.19
2023-04-13T09:59:19.671Z,93.86
2023-04-13T10:01:46.797Z,91.98
2023-04-13T10:04:13.664Z,89.26
2023-04-13T10:06:42.002Z,90.42
2023-04-13T10:09:09.450Z,89.04
2023-04-13T10:11:43.204Z,89.19
2023-04-13T10:14:18.416Z,89.15
2023-04-13T10:17:22.708Z,92.39
2023-04-13T10:19:51.577Z,91.94
2023-04-13T10:22:20.613Z,86.00
2023-04-13T10:24:47.215Z,91.76
2023-04-13T10:27:16.707Z,87.63
2023-04-13T10:29:43.349Z,82.99
2023-04-13T10:32:23.039Z,85.71
2023-04-13T10:34:50.321Z,80.74
2023-04-13T10:37:24.718Z,78.58
2023-04-13T10:40:08.952Z,77.92
2023-04-13T10:42:52.847Z,79.20
2023-04-13T10:45:26.171Z,79.46
2023-04-13T10:47:54.062Z,81.89
2023-04-13T10:50:22.658Z,79.22
2023-04-13T10:52:56.249Z,75.42
2023-04-13T10:55:27.417Z,74.25
2023-04-13T10:57:59.327Z,71.13
2023-04-13T11:00:42.296Z,69.08
2023-04-13T11:03:15.260Z,68.13
2023-04-13T11:05:42.572Z,68.36
2023-04-13T11:08:09.609Z,67.42
2023-04-13T11:10:36.247Z,68.14
2023-04-13T11:13:02.909Z,65.48
2023-04-13T11:15:30.516Z,63.91
2023-04-13T11:17:58.602Z,65.14
2023-04-13T11:20:38.697Z,64.14
2023-04-13T11:23:06.642Z,64.98
2023-04-13T11:25:36.235Z,67.67
2023-04-13T11:28:04.200Z,67.79
2023-04-13T11:30:32.469Z,64.94
2023-04-13T11:33:01.013Z,65.25
2023-04-13T11:35:27.640Z,64.87
2023-04-13T11:37:56.087Z,66.00
2023-04-13T11:40:25.713Z,67.53
2023-04-13T11:42:56.751Z,69.27
2023-04-13T11:45:26.808Z,67.86
2023-04-13T11:47:55.077Z,68.95
2023-04-13T11:50:22.391Z,70.28
2023-04-13T11:52:56.509Z,70.66
2023-04-13T11:55:24.353Z,68.17
2023-04-13T11:57:54.563Z,67.43
2023-04-13T12:00:25.998Z,68.82
2023-04-13T12:03:01.902Z,69.57
2023-04-13T12:05:32.425Z,69.87
2023-04-13T12:08:00.686Z,68.15
2023-04-13T12:10:39.164Z,68.52
2023-04-13T12:16:02.258Z,66.09
2023-04-13T12:18:37.433Z,65.93
2023-04-13T12:21:05.693Z,66.27
2023-04-13T12:23:32.630Z,67.07
2023-04-13T12:25:59.968Z,67.18
2023-04-13T12:28:32.200Z,67.23
2023-04-13T12:31:12.169Z,66.65
2023-04-13T12:33:39.720Z,67.99
2023-04-13T12:36:06.959Z,65.15
2023-04-13T12:38:34.536Z,64.56
2023-04-13T12:41:01.919Z,63.79
2023-04-13T12:43:28.612Z,62.70
2023-04-13T12:45:55.665Z,64.62
2023-04-13T12:48:22.648Z,63.83
2023-04-13T12:50:49.325Z,63.34
2023-04-13T12:53:16.008Z,61.83
2023-04-13T12:55:42.543Z,64.04
2023-04-13T12:58:09.927Z,58.26
2023-04-13T13:00:36.378Z,56.81
2023-04-13T13:03:13.494Z,55.02
2023-04-13T13:05:41.897Z,53.63
2023-04-13T13:08:09.182Z,53.25
2023-04-13T13:10:37.221Z,55.21
2023-04-13T13:13:04.478Z,54.19
2023-04-13T13:15:31.770Z,55.06
2023-04-13T13:18:00.899Z,55.79
2023-04-13T13:20:27.551Z,57.05
2023-04-13T13:22:54.139Z,54.32
2023-04-13T13:25:26.518Z,52.12
2023-04-13T13:30:37.762Z,52.06
2023-04-13T13:33:07.311Z,54.05
2023-04-13T13:35:35.272Z,52.89
2023-04-13T13:38:03.252Z,52.11
2023-04-13T13:40:37.762Z,51.95
2023-04-13T13:43:17.448Z,52.97
2023-04-13T13:45:58.334Z,53.22
2023-04-13T13:48:27.490Z,55.25
2023-04-13T13:50:56.319Z,55.33
2023-04-13T13:53:22.992Z,53.70
2023-04-13T13:55:52.372Z,53.32
2023-04-13T13:58:18.937Z,54.80
2023-04-13T14:00:45.971Z,54.02
2023-04-13T14:03:14.073Z,54.08
2023-04-13T14:05:41.001Z,53.96
2023-04-13T14:08:07.496Z,54.76
2023-04-13T14:10:35.917Z,54.90
2023-04-13T14:13:02.428Z,55.82
2023-04-13T14:15:29.082Z,56.43
2023-04-13T14:18:06.484Z,58.48
2023-04-13T14:20:38.437Z,57.22
2023-04-13T14:23:06.114Z,57.21
2023-04-13T14:25:32.504Z,58.30
2023-04-13T14:27:59.040Z,58.96
2023-04-13T14:30:27.969Z,58.68
2023-04-13T14:32:55.002Z,57.80
2023-04-13T14:35:21.873Z,57.34
2023-04-13T14:37:48.473Z,57.43
2023-04-13T14:40:17.119Z,56.96
2023-04-13T14:42:43.945Z,55.45
2023-04-13T14:45:12.311Z,56.26
2023-04-13T14:47:40.025Z,57.35
2023-04-13T14:50:08.356Z,56.69
2023-04-13T14:52:34.992Z,56.50
2023-04-13T14:55:01.807Z,55.69
2023-04-13T14:57:28.928Z,55.43
2023-04-13T14:59:56.881Z,55.27
2023-04-13T15:02:23.571Z,56.05
2023-04-13T15:04:50.395Z,54.92
2023-04-13T15:07:18.873Z,55.67
2023-04-13T15:09:45.611Z,56.59
2023-04-13T15:12:13.719Z,56.23
2023-04-13T15:14:41.062Z,57.33
2023-04-13T15:17:08.663Z,57.52
2023-04-13T15:19:35.402Z,57.41
2023-04-13T15:22:02.090Z,59.31
2023-04-13T15:24:28.963Z,64.54
2023-04-13T15:26:55.896Z,67.18
2023-04-13T15:29:23.277Z,68.79
2023-04-13T15:31:51.766Z,70.16
2023-04-13T15:34:18.437Z,72.09
2023-04-13T15:36:44.889Z,73.96
2023-04-13T15:39:11.355Z,73.52
2023-04-13T15:41:37.898Z,75.64
2023-04-13T15:44:04.732Z,75.46
2023-04-13T15:46:36.227Z,76.40
2023-04-13T15:49:15.490Z,77.77
2023-04-13T15:51:42.585Z,78.11
2023-04-13T15:54:09.208Z,77.42
2023-04-13T15:56:35.713Z,78.64
2023-04-13T15:59:02.540Z,79.74
2023-04-13T16:01:43.895Z,78.81
2023-04-13T16:04:11.508Z,78.44
2023-04-13T16:06:38.326Z,79.48
2023-04-13T16:09:04.811Z,79.44
2023-04-13T16:11:32.306Z,78.76
2023-04-13T16:14:07.201Z,79.44
2023-04-13T16:16:44.074Z,80.52
2023-04-13T16:19:12.116Z,81.15
2023-04-13T16:21:40.204Z,81.56
2023-04-13T16:24:08.086Z,80.26
2023-04-13T16:26:34.980Z,80.79
2023-04-13T16:29:01.795Z,80.49
2023-04-13T16:31:28.730Z,80.78
2023-04-13T16:33:55.651Z,80.96
2023-04-13T16:36:23.706Z,82.23
2023-04-13T16:38:51.011Z,82.64
2023-04-13T16:41:17.547Z,82.08
2023-04-13T16:43:44.160Z,82.64
2023-04-13T16:46:13.784Z,81.61
2023-04-13T16:48:40.453Z,82.16
2023-04-13T16:51:11.188Z,82.12
2023-04-13T16:53:50.198Z,83.18
2023-04-13T16:56:26.959Z,83.31
2023-04-13T16:59:03.299Z,83.67
2023-04-13T17:01:44.732Z,83.43
2023-04-13T17:04:26.063Z,83.39
2023-04-13T17:07:08.423Z,84.89
2023-04-13T17:09:39.304Z,85.42
2023-04-13T17:12:13.022Z,86.32
2023-04-13T17:14:40.245Z,86.18
2023-04-13T17:17:06.691Z,87.26
2023-04-13T17:19:33.162Z,87.97
2023-04-13T17:21:59.698Z,88.78
2023-04-13T17:24:26.180Z,89.55
2023-04-13T17:26:52.722Z,90.64
2023-04-13T17:29:21.822Z,91.55
2023-04-13T17:31:48.839Z,92.86
2023-04-13T17:34:15.430Z,92.95
2023-04-13T17:36:42.065Z,93.69
2023-04-13T17:39:08.991Z,93.97
2023-04-13T17:41:36.581Z,94.69
2023-04-13T17:44:03.369Z,96.00
2023-04-13T17:46:30.534Z,96.00
2023-04-13T17:48:57.356Z,95.08
2023-04-13T17:51:24.254Z,96.47
2023-04-13T17:53:51.311Z,96.06
2023-04-13T17:56:18.526Z,96.59
2023-04-13T17:58:45.434Z,96.05
2023-04-13T18:01:22.468Z,95.96
2023-04-13T18:04:01.932Z,96.43
2023-04-13T18:06:39.186Z,96.57
2023-04-13T18:09:21.713Z,96.50
2023-04-13T18:12:00.024Z,97.35
2023-04-13T18:14:37.752Z,98.23
2023-04-13T18:17:12.983Z,98.99
2023-04-13T18:19:52.455Z,98.85
2023-04-13T18:22:32.365Z,100.00
2023-04-13T18:25:08.956Z,100.00
2023-04-13T18:27:48.594Z,100.00
2023-04-13T18:30:28.277Z,100.00
2023-04-13T18:33:04.623Z,100.00
2023-04-13T18:35:43.296Z,100.00
2023-04-13T18:38:17.812Z,100.00
2023-04-13T18:40:57.530Z,100.00
2023-04-13T18:43:32.475Z,100.00
2023-04-13T18:46:07.919Z,100.00
2023-04-13T18:48:48.500Z,100.00
2023-04-13T18:51:16.425Z,100.00
2023-04-13T18:53:42.954Z,100.00
2023-04-13T18:56:09.463Z,100.00
2023-04-13T18:58:36.212Z,100.00
2023-04-13T19:01:02.779Z,100.00
2023-04-13T19:03:29.457Z,100.00
2023-04-13T19:05:56.779Z,100.00
2023-04-13T19:08:23.237Z,100.00
2023-04-13T19:10:49.719Z,100.00
2023-04-13T19:13:16.920Z,100.00
2023-04-13T19:15:43.465Z,100.00
2023-04-13T19:18:11.380Z,100.00
2023-04-13T19:20:38.156Z,100.00
2023-04-13T19:23:04.629Z,100.00
2023-04-13T19:25:31.141Z,100.00
2023-04-13T19:27:59.022Z,100.00
2023-04-13T19:30:25.554Z,100.00
2023-04-13T19:32:53.819Z,100.00
2023-04-13T19:35:22.420Z,100.00
2023-04-13T19:37:48.856Z,100.00
2023-04-13T19:40:15.412Z,100.00
2023-04-13T19:42:43.362Z,100.00
2023-04-13T19:45:10.671Z,100.00
2023-04-13T19:47:38.525Z,100.00
2023-04-13T19:50:07.181Z,100.00
2023-04-13T19:52:33.934Z,100.00
2023-04-13T19:55:00.473Z,100.00
2023-04-13T19:57:27.024Z,100.00
2023-04-13T19:59:53.637Z,100.00
2023-04-13T20:02:20.422Z,100.00
2023-04-13T20:04:49.981Z,100.00
2023-04-13T20:07:17.641Z,100.00
2023-04-13T20:09:44.654Z,100.00
2023-04-13T20:12:11.994Z,100.00
2023-04-13T20:14:41.584Z,100.00
2023-04-13T20:17:08.499Z,100.00
2023-04-13T20:19:36.348Z,100.00
2023-04-13T20:22:04.275Z,100.00
2023-04-13T20:24:31.448Z,100.00
2023-04-13T20:26:58.706Z,100.00
2023-04-13T20:29:26.992Z,100.00
2023-04-13T20:31:54.337Z,100.00
2023-04-13T20:34:21.185Z,100.00
2023-04-13T20:36:47.728Z,100.00
2023-04-13T20:39:14.478Z,100.00
2023-04-13T20:41:41.139Z,100.00
2023-04-13T20:44:09.909Z,100.00
2023-04-13T20:46:37.585Z,100.00
2023-04-13T20:49:05.039Z,100.00
2023-04-13T20:51:33.365Z,100.00
2023-04-13T20:54:03.125Z,100.00
2023-04-13T20:56:29.830Z,100.00
2023-04-13T20:58:57.747Z,100.00
2023-04-13T21:01:28.126Z,100.00
2023-04-13T21:03:54.616Z,100.00
2023-04-13T21:06:22.738Z,100.00
2023-04-13T21:08:49.390Z,100.00
2023-04-13T21:11:16.165Z,100.00
2023-04-13T21:13:42.748Z,100.00
2023-04-13T21:16:12.039Z,100.00
2023-04-13T21:18:38.939Z,100.00
2023-04-13T21:21:06.623Z,100.00
2023-04-13T21:23:33.369Z,100.00
2023-04-13T21:25:59.774Z,100.00
2023-04-13T21:28:26.237Z,100.00
2023-04-13T21:30:52.767Z,100.00
2023-04-13T21:33:19.357Z,100.00
2023-04-13T21:35:45.954Z,100.00
2023-04-13T21:38:12.642Z,100.00
2023-04-13T21:40:39.067Z,100.00
2023-04-13T21:43:05.533Z,100.00
2023-04-13T21:45:32.505Z,100.00
2023-04-13T21:47:59.095Z,100.00
2023-04-13T21:50:25.655Z,100.00
2023-04-13T21:52:52.367Z,100.00
2023-04-13T21:55:18.989Z,100.00
2023-04-13T21:57:49.424Z,100.00
2023-04-13T22:00:18.551Z,100.00
2023-04-13T22:02:45.134Z,100.00
2023-04-13T22:05:12.004Z,100.00
2023-04-13T22:07:42.852Z,100.00
2023-04-13T22:10:11.026Z,100.00
2023-04-13T22:12:37.773Z,100.00
2023-04-13T22:15:04.774Z,100.00
2023-04-13T22:17:31.312Z,100.00
2023-04-13T22:19:58.129Z,100.00
2023-04-13T22:22:24.647Z,100.00
2023-04-13T22:24:52.416Z,100.00
2023-04-13T22:27:18.950Z,100.00
2023-04-13T22:29:45.685Z,100.00
2023-04-13T22:32:12.192Z,100.00
2023-04-13T22:34:38.602Z,100.00
2023-04-13T22:37:07.049Z,100.00
2023-04-13T22:39:33.639Z,100.00
2023-04-13T22:42:00.170Z,100.00
2023-04-13T22:44:32.672Z,100.00
2023-04-13T22:46:59.327Z,100.00
2023-04-13T22:49:26.234Z,100.00
2023-04-13T22:51:52.763Z,100.00
2023-04-13T22:54:19.287Z,100.00
2023-04-13T22:56:46.943Z,100.00
2023-04-13T22:59:13.369Z,100.00
2023-04-13T23:01:39.892Z,100.00
2023-04-13T23:04:06.985Z,100.00
2023-04-13T23:06:36.598Z,100.00
2023-04-13T23:09:03.069Z,100.00
2023-04-13T23:11:29.651Z,100.00
2023-04-13T23:13:56.084Z,100.00
2023-04-13T23:16:22.803Z,100.00
2023-04-13T23:18:49.443Z,100.00
2023-04-13T23:21:16.063Z,100.00
2023-04-13T23:23:42.779Z,100.00
2023-04-13T23:26:09.412Z,100.00
2023-04-13T23:28:35.960Z,100.00
2023-04-13T23:31:06.538Z,100.00
2023-04-13T23:33:36.244Z,100.00
2023-04-13T23:36:03.518Z,100.00
2023-04-13T23:38:30.804Z,100.00
2023-04-13T23:40:57.707Z,100.00
2023-04-13T23:43:24.890Z,100.00
2023-04-13T23:45:52.744Z,100.00
2023-04-13T23:48:21.408Z,100.00
2023-04-13T23:50:48.354Z,100.00
2023-04-13T23:53:15.037Z,100.00
2023-04-13T23:55:41.591Z,100.00
2023-04-13T23:58:08.069Z,100.00
